Time;durP1;ratioP1;P1;durP2;ratioP2;P2;SDS_P1;SDS_P2;PMS_P1;PMS_P2;Temp;Humidity;BMP_temperature;BMP_pressure;BME280_temperature;BME280_humidity;BME280_pressure;Samples;Min_cycle;Max_cycle;Signal;HPM_P1;HPM_P2
2024/02/16 00:00:26;;;;;;;44.13;23.23;;;;;;;-4.02;100.00;102729.22;5034140;28;20056;-70
2024/02/16 00:02:52;;;;;;;46.50;22.23;;;;;;;-4.04;100.00;102717.97;5031979;28;20033;-70
2024/02/16 00:05:18;;;;;;;43.00;22.37;;;;;;;-3.88;100.00;102727.25;5033500;28;20049;-71
2024/02/16 00:07:44;;;;;;;40.97;24.33;;;;;;;-3.72;100.00;102733.09;5032265;28;20505;-71
2024/02/16 00:10:10;;;;;;;40.17;22.17;;;;;;;-3.68;100.00;102720.91;5033208;28;20405;-70
2024/02/16 00:12:35;;;;;;;41.47;22.93;;;;;;;-3.62;100.00;102712.97;5031809;28;20045;-70
2024/02/16 00:15:02;;;;;;;41.60;22.27;;;;;;;-3.44;100.00;102749.16;5033011;28;20283;-70
2024/02/16 00:17:28;;;;;;;41.10;21.17;;;;;;;-3.75;100.00;102707.13;5032868;28;20041;-72
2024/02/16 00:19:54;;;;;;;41.73;24.07;;;;;;;-3.57;100.00;102748.47;5031630;28;20037;-71
2024/02/16 00:22:20;;;;;;;37.67;20.95;;;;;;;-3.89;100.00;102720.31;5033093;28;20068;-70
2024/02/16 00:24:47;;;;;;;38.70;21.73;;;;;;;-3.88;100.00;102722.03;5032214;28;20064;-72
2024/02/16 00:27:14;;;;;;;44.63;23.27;;;;;;;-3.98;100.00;102710.06;5032699;28;20081;-73
2024/02/16 00:29:40;;;;;;;44.03;22.35;;;;;;;-3.84;100.00;102759.31;5032583;28;20501;-75
2024/02/16 00:32:07;;;;;;;39.60;23.37;;;;;;;-3.86;100.00;102740.25;5031289;28;20063;-74
2024/02/16 00:34:34;;;;;;;40.70;22.80;;;;;;;-3.96;100.00;102720.44;5032561;28;20072;-68
2024/02/16 00:36:59;;;;;;;47.55;24.30;;;;;;;-4.06;100.00;102712.75;5032467;28;20049;-71
2024/02/16 00:39:25;;;;;;;42.07;21.83;;;;;;;-3.89;100.00;102746.34;5032657;28;20056;-70
2024/02/16 00:41:51;;;;;;;40.13;21.10;;;;;;;-3.85;100.00;102741.97;5033178;28;20078;-74
2024/02/16 00:44:17;;;;;;;48.87;23.57;;;;;;;-3.93;100.00;102733.41;5031335;28;20041;-74
2024/02/16 00:46:44;;;;;;;36.60;21.13;;;;;;;-4.42;100.00;102656.88;5031007;28;20041;-72
2024/02/16 00:49:13;;;;;;;36.38;20.42;;;;;;;-4.31;100.00;102685.38;5031297;28;20041;-71
2024/02/16 00:51:39;;;;;;;37.22;21.30;;;;;;;-4.01;100.00;102714.44;5033095;28;20612;-71
2024/02/16 00:54:05;;;;;;;40.95;21.13;;;;;;;-3.86;100.00;102729.81;5032673;28;20489;-70
2024/02/16 00:56:32;;;;;;;45.00;22.13;;;;;;;-4.05;100.00;102695.38;5031673;28;20045;-72
2024/02/16 00:58:57;;;;;;;40.25;21.25;;;;;;;-3.81;100.00;102734.06;5032615;28;20111;-71
2024/02/16 01:01:24;;;;;;;45.23;21.80;;;;;;;-3.93;100.00;102725.59;5032790;28;20466;-71
2024/02/16 01:03:51;;;;;;;41.05;21.23;;;;;;;-3.91;100.00;102731.66;5032629;28;20501;-69
2024/02/16 01:06:18;;;;;;;40.28;21.65;;;;;;;-4.04;100.00;102698.88;5032749;28;20055;-70
2024/02/16 01:08:43;;;;;;;44.25;23.50;;;;;;;-3.93;100.00;102721.25;5031050;28;20060;-72
2024/02/16 01:11:09;;;;;;;36.20;19.20;;;;;;;-3.89;100.00;102715.13;5032099;28;20492;-69
2024/02/16 01:13:35;;;;;;;40.10;21.67;;;;;;;-4.01;100.00;102691.88;5031419;28;20120;-71
2024/02/16 01:16:00;;;;;;;38.83;21.40;;;;;;;-3.77;100.00;102716.66;5034466;28;20029;-71
2024/02/16 01:18:28;;;;;;;38.90;21.03;;;;;;;-4.11;100.00;102659.06;5032524;28;20555;-70
2024/02/16 01:20:53;;;;;;;39.45;24.70;;;;;;;-3.74;100.00;102719.25;5032057;28;20040;-71
2024/02/16 01:23:20;;;;;;;44.07;22.33;;;;;;;-4.10;100.00;102652.97;5031939;28;20404;-71
2024/02/16 01:25:46;;;;;;;41.90;22.65;;;;;;;-3.76;100.00;102715.78;5031838;28;20505;-70
2024/02/16 01:28:12;;;;;;;65.93;22.98;;;;;;;-3.93;100.00;102697.81;5032054;28;20053;-70
2024/02/16 01:30:38;;;;;;;47.17;21.50;;;;;;;-3.86;100.00;102703.78;5030552;28;20034;-70
2024/02/16 01:33:05;;;;;;;39.10;20.85;;;;;;;-3.79;100.00;102721.03;5031739;28;20030;-71
2024/02/16 01:35:30;;;;;;;40.25;21.23;;;;;;;-3.77;100.00;102719.28;5031852;28;20047;-71
2024/02/16 01:37:56;;;;;;;36.83;21.00;;;;;;;-3.83;100.00;102709.81;5031980;28;20116;-71
2024/02/16 01:40:21;;;;;;;38.77;19.67;;;;;;;-3.72;100.00;102733.09;5031695;28;20107;-71
2024/02/16 01:42:47;;;;;;;40.10;20.93;;;;;;;-4.06;100.00;102665.91;5031398;28;20072;-69
2024/02/16 01:45:13;;;;;;;34.33;21.27;;;;;;;-3.65;100.00;102724.31;5033115;28;20115;-71
2024/02/16 01:47:41;;;;;;;39.83;21.47;;;;;;;-3.95;100.00;102667.50;5032116;28;20044;-70
2024/02/16 01:50:07;;;;;;;48.53;22.27;;;;;;;-3.66;100.00;102706.97;5031736;28;20120;-70
2024/02/16 01:52:35;;;;;;;36.75;19.63;;;;;;;-3.66;100.00;102696.53;5031613;28;20489;-70
2024/02/16 01:55:03;;;;;;;40.95;20.02;;;;;;;-3.58;100.00;102683.41;5031676;28;20053;-69
2024/02/16 01:57:29;;;;;;;40.15;21.70;;;;;;;-3.49;100.00;102688.44;5030386;28;20065;-69
2024/02/16 01:59:55;;;;;;;37.97;19.63;;;;;;;-3.39;100.00;102699.59;5031587;28;20033;-70
2024/02/16 02:02:20;;;;;;;37.30;20.73;;;;;;;-3.26;100.00;102716.72;5032624;28;20045;-71
2024/02/16 02:04:46;;;;;;;42.07;20.77;;;;;;;-3.23;100.00;102716.66;5032342;28;20091;-70
2024/02/16 02:07:15;;;;;;;38.30;20.83;;;;;;;-3.20;100.00;102700.97;5032210;28;20496;-69
2024/02/16 02:09:42;;;;;;;39.25;19.98;;;;;;;-3.14;100.00;102713.91;5033828;28;20171;-71
2024/02/16 02:12:10;;;;;;;42.20;20.67;;;;;;;-3.17;100.00;102711.34;5034233;28;20128;-71
2024/02/16 02:14:39;;;;;;;39.85;20.23;;;;;;;-3.20;100.00;102685.31;5035100;28;20068;-73
2024/02/16 02:17:04;;;;;;;42.75;22.05;;;;;;;-3.04;100.00;102694.59;5043271;28;20041;-70
2024/02/16 02:19:30;;;;;;;40.73;20.63;;;;;;;-2.96;100.00;102703.13;5039504;28;20044;-71
2024/02/16 02:21:56;;;;;;;38.80;21.33;;;;;;;-3.06;100.00;102688.56;5033173;28;20463;-72
2024/02/16 02:24:26;;;;;;;42.55;21.88;;;;;;;-3.08;100.00;102689.47;5031300;28;20913;-72
2024/02/16 02:26:52;;;;;;;36.20;20.10;;;;;;;-3.09;100.00;102699.03;5031409;28;20050;-70
2024/02/16 02:29:17;;;;;;;38.60;20.43;;;;;;;-3.07;100.00;102712.03;5030491;28;20052;-72
2024/02/16 02:31:43;;;;;;;42.60;21.33;;;;;;;-3.27;100.00;102684.59;5031415;28;20033;-71
2024/02/16 02:34:10;;;;;;;47.53;23.87;;;;;;;-3.21;100.00;102702.72;5030326;28;20033;-72
2024/02/16 02:36:35;;;;;;;44.35;21.55;;;;;;;-3.26;100.00;102696.72;5031690;28;20052;-71
2024/02/16 02:39:01;;;;;;;50.97;25.37;;;;;;;-3.20;100.00;102711.38;5031359;28;20033;-71
2024/02/16 02:41:26;;;;;;;42.70;25.33;;;;;;;-3.55;100.00;102642.53;5031027;28;20033;-71
2024/02/16 02:43:53;;;;;;;43.83;23.83;;;;;;;-3.34;100.00;102656.94;5031216;28;20026;-72
2024/02/16 02:46:18;;;;;;;43.67;22.42;;;;;;;-3.02;100.00;102699.78;5033247;28;20037;-69
2024/02/16 02:48:45;;;;;;;46.30;24.17;;;;;;;-2.87;100.00;102726.44;5033210;28;20047;-72
2024/02/16 02:51:11;;;;;;;45.25;24.02;;;;;;;-3.06;100.00;102688.56;5031294;28;20044;-71
2024/02/16 02:53:36;;;;;;;42.77;21.13;;;;;;;-3.13;100.00;102681.75;5029800;28;20033;-73
2024/02/16 02:56:02;;;;;;;42.50;22.30;;;;;;;-3.04;100.00;102702.41;5031793;28;20037;-71
2024/02/16 02:58:28;;;;;;;37.10;20.77;;;;;;;-2.86;100.00;102727.31;5031254;28;20045;-69
2024/02/16 03:00:54;;;;;;;36.77;20.83;;;;;;;-2.77;100.00;102732.34;5030272;28;20049;-74
2024/02/16 03:03:20;;;;;;;37.73;19.97;;;;;;;-2.68;100.00;102731.28;5035276;28;20120;-69
2024/02/16 03:05:46;;;;;;;37.80;18.88;;;;;;;-2.62;100.00;102736.38;5035912;28;20037;-71
2024/02/16 03:08:11;;;;;;;34.20;18.53;;;;;;;-2.58;100.00;102744.13;5034853;28;20049;-71
2024/02/16 03:10:37;;;;;;;35.33;19.33;;;;;;;-2.58;100.00;102738.06;5035701;28;20083;-73
2024/02/16 03:13:03;;;;;;;32.93;18.23;;;;;;;-2.61;100.00;102738.09;5036217;28;20037;-70
2024/02/16 03:15:29;;;;;;;30.10;16.90;;;;;;;-2.67;100.00;102733.88;5035552;28;20061;-70
2024/02/16 03:17:55;;;;;;;29.90;16.23;;;;;;;-2.50;100.00;102746.59;5035171;28;20040;-71
2024/02/16 03:20:21;;;;;;;30.42;17.33;;;;;;;-2.77;100.00;102684.53;5035439;28;20268;-72
2024/02/16 03:22:48;;;;;;;27.30;16.60;;;;;;;-2.43;100.00;102734.28;5035023;28;20045;-72
2024/02/16 03:25:14;;;;;;;30.38;16.05;;;;;;;-2.32;100.00;102751.41;5036005;28;20504;-72
2024/02/16 03:27:41;;;;;;;30.35;16.50;;;;;;;-2.44;100.00;102733.41;5035211;28;20136;-70
2024/02/16 03:30:08;;;;;;;29.13;15.88;;;;;;;-2.42;100.00;102721.19;5034458;28;20454;-71
2024/02/16 03:32:33;;;;;;;30.35;17.40;;;;;;;-2.26;100.00;102751.31;5034390;28;20516;-73
2024/02/16 03:34:59;;;;;;;33.87;16.33;;;;;;;-2.53;100.00;102705.78;5034564;28;20049;-69
2024/02/16 03:37:25;;;;;;;29.37;17.17;;;;;;;-2.46;100.00;102732.59;5034492;28;20493;-69
2024/02/16 03:39:51;;;;;;;31.03;15.67;;;;;;;-2.46;100.00;102737.81;5032265;28;20040;-72
2024/02/16 03:42:20;;;;;;;31.37;16.67;;;;;;;-2.55;100.00;102724.94;5032052;28;20774;-69
2024/02/16 03:44:46;;;;;;;29.52;16.98;;;;;;;-2.64;100.00;102719.91;5035827;28;20474;-70
2024/02/16 03:47:11;;;;;;;32.47;18.50;;;;;;;-2.68;100.00;102723.47;5033923;28;20037;-73
2024/02/16 03:49:37;;;;;;;32.03;18.67;;;;;;;-2.70;100.00;102717.41;5033151;28;20045;-70
2024/02/16 03:52:03;;;;;;;29.53;16.50;;;;;;;-2.77;100.00;102702.78;5033091;28;20102;-72
2024/02/16 03:54:29;;;;;;;29.40;17.97;;;;;;;-2.60;100.00;102721.59;5034388;28;20029;-74
2024/02/16 03:56:55;;;;;;;25.10;13.83;;;;;;;-2.55;100.00;102718.00;5031452;28;20036;-70
2024/02/16 03:59:20;;;;;;;29.63;15.27;;;;;;;-2.56;100.00;102703.22;5032521;28;20621;-71
2024/02/16 04:01:46;;;;;;;32.07;16.47;;;;;;;-2.45;100.00;102707.34;5032745;28;20120;-69
2024/02/16 04:04:12;;;;;;;27.57;15.67;;;;;;;-2.42;100.00;102708.16;5032355;28;20061;-70
2024/02/16 04:06:38;;;;;;;27.83;14.97;;;;;;;-2.49;100.00;102714.38;5034259;28;20080;-72
2024/02/16 04:09:06;;;;;;;24.52;14.98;;;;;;;-2.41;100.00;102733.34;5038369;28;20060;-74
2024/02/16 04:11:32;;;;;;;28.67;15.00;;;;;;;-2.51;100.00;102703.13;5033897;28;20037;-70
2024/02/16 04:13:58;;;;;;;25.77;14.85;;;;;;;-2.42;100.00;102715.13;5031839;28;20039;-70
2024/02/16 04:16:24;;;;;;;28.63;16.50;;;;;;;-2.23;100.00;102748.63;5032301;28;20422;-70
2024/02/16 04:18:50;;;;;;;32.45;16.55;;;;;;;-2.24;100.00;102731.25;5032072;28;20037;-70
2024/02/16 04:21:16;;;;;;;24.47;14.23;;;;;;;-2.31;100.00;102716.63;5032534;28;20072;-74
2024/02/16 04:23:42;;;;;;;27.27;16.58;;;;;;;-2.31;100.00;102700.09;5032124;28;20767;-71
2024/02/16 04:26:08;;;;;;;28.70;14.40;;;;;;;-2.23;100.00;102709.47;5032472;28;20057;-74
2024/02/16 04:28:35;;;;;;;31.03;17.17;;;;;;;-2.15;100.00;102716.28;5032066;28;20080;-71
2024/02/16 04:31:00;;;;;;;31.67;16.02;;;;;;;-2.11;100.00;102720.53;5032076;28;20106;-72
2024/02/16 04:33:26;;;;;;;29.57;15.30;;;;;;;-2.14;100.00;102710.16;5031873;28;20037;-75
2024/02/16 04:35:51;;;;;;;28.90;15.60;;;;;;;-2.10;100.00;102717.03;5031810;28;20435;-71
2024/02/16 04:38:17;;;;;;;25.80;12.80;;;;;;;-2.16;100.00;102709.34;5031664;28;20033;-73
2024/02/16 04:40:43;;;;;;;31.58;15.85;;;;;;;-2.39;100.00;102673.28;5032569;28;20489;-73
2024/02/16 04:43:08;;;;;;;27.03;15.20;;;;;;;-2.26;100.00;102706.94;5031984;28;20087;-75
2024/02/16 04:45:35;;;;;;;29.37;14.83;;;;;;;-2.29;100.00;102706.16;5031969;28;20029;-69
2024/02/16 04:48:05;;;;;;;31.35;15.35;;;;;;;-2.12;100.00;102726.66;5014753;28;20037;-71
2024/02/16 04:50:32;;;;;;;28.63;15.77;;;;;;;-2.09;100.00;102731.81;5032360;28;20048;-68
2024/02/16 04:52:57;;;;;;;26.33;14.50;;;;;;;-2.29;100.00;102698.31;5031763;28;20033;-69
2024/02/16 04:55:23;;;;;;;27.70;14.07;;;;;;;-2.31;100.00;102697.50;5030731;28;20260;-70
2024/02/16 04:57:48;;;;;;;32.70;14.53;;;;;;;-2.12;100.00;102724.03;5031944;28;20045;-69
2024/02/16 05:00:14;;;;;;;27.97;14.60;;;;;;;-2.34;100.00;102684.50;5030662;28;20037;-70
2024/02/16 05:02:40;;;;;;;24.93;14.53;;;;;;;-2.27;100.00;102692.19;5031241;28;20401;-69
2024/02/16 05:05:05;;;;;;;28.10;13.60;;;;;;;-2.39;100.00;102671.53;5031325;28;20033;-69
2024/02/16 05:07:36;;;;;;;31.60;14.13;;;;;;;-2.32;100.00;102673.13;5030849;28;20124;-70
2024/02/16 05:10:02;;;;;;;28.63;14.03;;;;;;;-2.02;100.00;102708.16;5030525;28;20050;-68
2024/02/16 05:12:27;;;;;;;25.85;12.90;;;;;;;-2.02;100.00;102723.81;5029711;28;20673;-68
2024/02/16 05:14:53;;;;;;;29.40;17.40;;;;;;;-2.09;100.00;102710.91;5029155;28;20120;-71
2024/02/16 05:17:20;;;;;;;27.77;14.07;;;;;;;-2.28;100.00;102685.25;5030456;28;20421;-68
2024/02/16 05:19:45;;;;;;;29.10;15.55;;;;;;;-2.12;100.00;102719.69;5028824;28;20046;-68
2024/02/16 05:22:11;;;;;;;25.77;14.10;;;;;;;-2.21;100.00;102707.69;5030382;28;20036;-68
2024/02/16 05:24:39;;;;;;;29.10;15.70;;;;;;;-2.34;100.00;102693.19;5030299;28;20057;-66
2024/02/16 05:27:05;;;;;;;25.95;15.02;;;;;;;-2.08;100.00;102726.53;5030492;28;20057;-70
2024/02/16 05:29:30;;;;;;;28.53;16.13;;;;;;;-2.28;100.00;102694.81;5030470;28;20394;-67
2024/02/16 05:31:55;;;;;;;38.90;19.47;;;;;;;-2.16;100.00;102725.88;5030799;28;20087;-70
2024/02/16 05:34:21;;;;;;;44.03;24.53;;;;;;;-2.16;100.00;102745.88;5029004;28;20067;-70
2024/02/16 05:36:47;;;;;;;53.83;24.43;;;;;;;-2.35;100.00;102708.88;5027540;28;20048;-70
2024/02/16 05:39:31;;;;;;;52.10;23.50;;;;;;;-2.11;100.00;102749.25;5030341;28;20128;-71
2024/02/16 05:41:57;;;;;;;34.25;20.45;;;;;;;-2.34;100.00;102716.66;5029050;28;20036;-68
2024/02/16 05:44:22;;;;;;;35.63;20.47;;;;;;;-2.17;100.00;102741.56;5053960;28;20049;-72
2024/02/16 05:46:48;;;;;;;31.83;18.43;;;;;;;-2.32;100.00;102711.41;5029183;28;20048;-70
2024/02/16 05:49:15;;;;;;;22.90;13.43;;;;;;;-2.14;100.00;102739.75;5029699;28;20503;-70
2024/02/16 05:51:42;;;;;;;24.77;13.20;;;;;;;-2.27;100.00;102717.41;5029352;28;20047;-71
2024/02/16 05:54:07;;;;;;;28.40;15.23;;;;;;;-2.28;100.00;102716.56;5061388;28;20550;-72
2024/02/16 05:56:34;;;;;;;24.03;16.30;;;;;;;-2.44;100.00;102686.44;5029575;28;20272;-70
2024/02/16 05:59:00;;;;;;;21.20;13.67;;;;;;;-2.07;100.00;102745.69;5030002;28;20132;-69
2024/02/16 06:01:27;;;;;;;27.93;13.37;;;;;;;-2.04;100.00;102750.84;5029702;28;20360;-71
2024/02/16 06:03:53;;;;;;;23.33;13.15;;;;;;;-2.65;100.00;102660.81;5030736;28;20326;-70
2024/02/16 06:06:18;;;;;;;23.07;12.57;;;;;;;-2.11;100.00;102742.28;5051403;28;20029;-70
2024/02/16 06:08:44;;;;;;;23.93;12.83;;;;;;;-2.09;100.00;102748.31;5030067;28;20105;-72
2024/02/16 06:11:09;;;;;;;22.23;12.93;;;;;;;-2.15;100.00;102745.00;5030096;28;20128;-70
2024/02/16 06:13:35;;;;;;;22.07;14.13;;;;;;;-2.20;100.00;102719.84;5029817;28;20049;-68
2024/02/16 06:16:00;;;;;;;24.50;14.27;;;;;;;-2.04;100.00;102741.25;5029494;28;20076;-71
2024/02/16 06:18:29;;;;;;;21.60;14.37;;;;;;;-2.10;100.00;102736.16;5030313;28;20191;-70
2024/02/16 06:20:55;;;;;;;24.83;14.95;;;;;;;-2.06;100.00;102753.47;5028383;28;20033;-71
2024/02/16 06:23:20;;;;;;;20.27;13.80;;;;;;;-2.09;100.00;102747.47;5029761;28;20477;-69
2024/02/16 06:25:48;;;;;;;18.87;11.90;;;;;;;-2.22;100.00;102729.47;5030128;28;20059;-72
2024/02/16 06:28:13;;;;;;;23.17;14.05;;;;;;;-2.23;100.00;102735.59;5029761;28;20088;-71
2024/02/16 06:30:39;;;;;;;23.10;13.77;;;;;;;-2.12;100.00;102744.94;5045119;28;20111;-72
2024/02/16 06:33:04;;;;;;;20.83;12.43;;;;;;;-2.12;100.00;102743.16;5026258;28;20033;-72
2024/02/16 06:35:30;;;;;;;27.37;16.07;;;;;;;-2.12;100.00;102739.69;5030523;28;20057;-71
2024/02/16 06:37:55;;;;;;;33.00;18.50;;;;;;;-2.10;100.00;102757.06;5033708;28;20048;-71
2024/02/16 06:40:21;;;;;;;37.23;20.00;;;;;;;-2.06;100.00;102763.06;5033701;28;20029;-70
2024/02/16 06:42:46;;;;;;;30.43;16.60;;;;;;;-2.01;100.00;102751.66;5028892;28;20061;-73
2024/02/16 06:45:12;;;;;;;25.57;14.07;;;;;;;-2.13;100.00;102719.72;5055189;28;20088;-69
2024/02/16 06:47:37;;;;;;;20.20;12.47;;;;;;;-1.96;100.00;102746.31;5031131;28;20033;-69
2024/02/16 06:50:03;;;;;;;26.23;14.37;;;;;;;-1.95;100.00;102751.50;5034802;28;20037;-68
2024/02/16 06:52:29;;;;;;;22.58;12.05;;;;;;;-2.17;100.00;102723.28;5034736;28;20059;-70
2024/02/16 06:54:55;;;;;;;15.17;9.93;;;;;;;-2.44;100.00;102696.88;5035203;28;20045;-73
2024/02/16 06:57:20;;;;;;;19.97;10.83;;;;;;;-2.30;100.00;102709.66;5035972;28;20048;-72
2024/02/16 06:59:46;;;;;;;26.97;14.60;;;;;;;-2.14;100.00;102724.06;5037800;28;20119;-73
2024/02/16 07:02:13;;;;;;;24.23;15.90;;;;;;;-1.98;100.00;102748.13;5035670;28;20034;-70
2024/02/16 07:04:41;;;;;;;31.83;16.92;;;;;;;-2.16;100.00;102720.66;5035998;28;20029;-75
2024/02/16 07:07:08;;;;;;;21.42;13.82;;;;;;;-1.93;100.00;102754.09;5034126;28;20087;-73
2024/02/16 07:09:33;;;;;;;30.40;13.27;;;;;;;-1.88;100.00;102752.22;5036008;28;20044;-72
2024/02/16 07:11:59;;;;;;;19.67;10.70;;;;;;;-1.87;100.00;102740.88;5037704;28;20276;-72
2024/02/16 07:14:24;;;;;;;17.17;10.50;;;;;;;-1.76;100.00;102758.91;5036872;28;20029;-71
2024/02/16 07:16:50;;;;;;;21.37;12.37;;;;;;;-1.77;100.00;102741.53;5033807;28;20535;-72
2024/02/16 07:19:15;;;;;;;21.17;11.40;;;;;;;-1.98;100.00;102724.63;5034008;28;20041;-73
2024/02/16 07:21:41;;;;;;;19.23;10.67;;;;;;;-1.71;100.00;102744.88;5034345;28;20040;-72
2024/02/16 07:24:07;;;;;;;17.20;10.67;;;;;;;-1.64;100.00;102729.91;5034179;28;20034;-72
2024/02/16 07:26:33;;;;;;;19.83;11.47;;;;;;;-1.62;100.00;102718.53;5035107;28;20111;-73
2024/02/16 07:28:58;;;;;;;14.40;9.80;;;;;;;-1.50;100.00;102753.09;5035571;28;20045;-72
2024/02/16 07:31:24;;;;;;;16.97;10.03;;;;;;;-1.56;100.00;102749.72;5031387;28;20267;-73
2024/02/16 07:33:49;;;;;;;15.53;8.70;;;;;;;-1.65;100.00;102760.41;5032554;28;20034;-71
2024/02/16 07:36:17;;;;;;;17.67;9.60;;;;;;;-1.64;100.00;102766.50;5033992;28;20043;-72
2024/02/16 07:38:43;;;;;;;19.17;9.57;;;;;;;-1.69;100.00;102771.81;5036937;28;20037;-72
2024/02/16 07:41:09;;;;;;;26.97;14.37;;;;;;;-1.81;100.00;102737.28;5037051;28;20033;-71
2024/02/16 07:43:35;;;;;;;16.87;10.67;;;;;;;-1.78;100.00;102731.97;5035702;28;20077;-70
2024/02/16 07:46:00;;;;;;;16.97;12.20;;;;;;;-1.79;100.00;102746.78;5034367;28;20854;-69
2024/02/16 07:48:26;;;;;;;19.43;11.73;;;;;;;-1.70;100.00;102748.34;5028278;28;20480;-73
2024/02/16 07:50:51;;;;;;;15.40;10.97;;;;;;;-1.84;100.00;102722.53;5035263;28;20068;-70
2024/02/16 07:53:17;;;;;;;17.87;11.37;;;;;;;-1.80;100.00;102752.91;5035574;28;20087;-71
2024/02/16 07:55:43;;;;;;;16.20;10.90;;;;;;;-1.97;100.00;102711.53;5033440;28;20880;-69
2024/02/16 07:58:09;;;;;;;20.23;12.10;;;;;;;-1.84;100.00;102732.13;5056341;28;20116;-70
2024/02/16 08:00:34;;;;;;;16.90;11.07;;;;;;;-1.82;100.00;102725.09;5031047;28;20416;-70
2024/02/16 08:03:00;;;;;;;17.23;11.10;;;;;;;-1.76;100.00;102736.25;5031377;28;20421;-71
2024/02/16 08:05:26;;;;;;;18.30;10.30;;;;;;;-1.82;100.00;102733.78;5032673;28;20037;-70
2024/02/16 08:07:53;;;;;;;18.20;11.23;;;;;;;-2.23;100.00;102680.78;5032502;28;20072;-70
2024/02/16 08:10:21;;;;;;;17.17;10.07;;;;;;;-2.06;100.00;102732.59;5032420;28;20616;-72
2024/02/16 08:12:46;;;;;;;15.20;9.90;;;;;;;-2.05;100.00;102749.13;5030149;28;20045;-71
2024/02/16 08:15:12;;;;;;;16.30;9.53;;;;;;;-2.12;100.00;102748.41;5032634;28;20740;-71
2024/02/16 08:17:39;;;;;;;14.20;9.90;;;;;;;-2.37;100.00;102713.25;5032331;28;20047;-70
2024/02/16 08:20:05;;;;;;;17.13;9.83;;;;;;;-2.39;100.00;102708.06;5032428;28;20033;-74
2024/02/16 08:22:32;;;;;;;14.27;10.27;;;;;;;-2.27;100.00;102733.06;5032360;28;20268;-70
2024/02/16 08:24:59;;;;;;;14.70;9.70;;;;;;;-2.19;100.00;102720.72;5032290;28;20299;-71
2024/02/16 08:27:24;;;;;;;16.43;10.10;;;;;;;-2.01;100.00;102745.56;5032252;28;20417;-70
2024/02/16 08:29:51;;;;;;;15.37;8.93;;;;;;;-1.95;100.00;102750.66;5032209;28;20272;-70
2024/02/16 08:32:17;;;;;;;17.63;10.47;;;;;;;-1.92;100.00;102745.34;5032170;28;20033;-72
2024/02/16 08:34:43;;;;;;;15.30;10.07;;;;;;;-1.84;100.00;102738.19;5031669;28;20276;-69
2024/02/16 08:37:09;;;;;;;13.67;8.50;;;;;;;-1.81;100.00;102737.28;5055611;28;20279;-71
2024/02/16 08:39:41;;;;;;;14.63;10.03;;;;;;;-1.91;100.00;102705.28;5031760;28;20287;-70
2024/02/16 08:42:08;;;;;;;14.70;10.53;;;;;;;-1.76;100.00;102735.41;5023409;28;20083;-69
2024/02/16 08:44:34;;;;;;;19.80;11.13;;;;;;;-1.85;100.00;102720.81;5029023;28;20383;-72
2024/02/16 08:46:59;;;;;;;20.00;10.37;;;;;;;-1.97;100.00;102689.78;5030079;28;21020;-69
2024/02/16 08:49:25;;;;;;;19.47;9.53;;;;;;;-2.16;100.00;102683.25;5027580;28;20041;-72
2024/02/16 08:51:51;;;;;;;18.03;11.30;;;;;;;-2.01;100.00;102709.00;5024845;28;20066;-68
2024/02/16 08:54:18;;;;;;;15.40;8.80;;;;;;;-2.00;100.00;102711.59;5027756;28;20033;-69
2024/02/16 08:56:45;;;;;;;13.50;10.13;;;;;;;-1.89;100.00;102729.63;5031656;28;20041;-70
2024/02/16 08:59:10;;;;;;;14.20;10.30;;;;;;;-2.01;100.00;102719.47;5031021;28;20671;-71
2024/02/16 09:01:41;;;;;;;14.23;10.33;;;;;;;-2.05;100.00;102702.13;5031327;28;20261;-70
2024/02/16 09:04:06;;;;;;;14.53;9.40;;;;;;;-2.96;100.00;102571.91;5030824;28;20072;-70
2024/02/16 09:06:34;;;;;;;15.93;10.10;;;;;;;-2.09;100.00;102696.13;5028177;28;20288;-72
2024/02/16 09:09:00;;;;;;;17.70;9.07;;;;;;;-2.34;100.00;102651.41;5030866;28;20029;-71
2024/02/16 09:11:26;;;;;;;13.03;9.20;;;;;;;-2.02;100.00;102691.63;5030651;28;20275;-70
2024/02/16 09:13:51;;;;;;;16.23;9.03;;;;;;;-1.84;100.00;102709.47;5030020;28;20033;-73
2024/02/16 09:16:17;;;;;;;14.47;8.33;;;;;;;-2.00;100.00;102679.41;5030923;28;20029;-70
2024/02/16 09:18:42;;;;;;;15.87;8.80;;;;;;;-1.84;100.00;102701.63;5027964;28;20033;-70
2024/02/16 09:21:08;;;;;;;12.27;8.77;;;;;;;-1.86;100.00;102682.53;5030798;28;20080;-70
2024/02/16 09:23:35;;;;;;;14.07;8.27;;;;;;;-1.79;100.00;102694.53;5029894;28;20430;-72
2024/02/16 09:26:02;;;;;;;19.30;9.30;;;;;;;-1.78;100.00;102701.47;5030624;28;20062;-70
2024/02/16 09:28:29;;;;;;;12.73;8.53;;;;;;;-1.94;100.00;102672.28;5030765;28;20784;-73
2024/02/16 09:30:56;;;;;;;11.57;7.25;;;;;;;-2.01;100.00;102659.41;5029406;28;20300;-73
2024/02/16 09:33:24;;;;;;;10.40;7.57;;;;;;;-1.84;100.00;102680.75;5031091;28;20037;-73
2024/02/16 09:35:50;;;;;;;12.10;7.43;;;;;;;-1.81;100.00;102678.06;5030412;28;20053;-73
2024/02/16 09:38:15;;;;;;;11.93;7.67;;;;;;;-1.67;100.00;102691.66;5030289;28;20492;-75
2024/02/16 09:40:41;;;;;;;13.10;7.87;;;;;;;-1.60;100.00;102688.00;5030236;28;20824;-73
2024/02/16 09:43:06;;;;;;;15.40;9.03;;;;;;;-1.60;100.00;102684.53;5030588;28;20472;-73
2024/02/16 09:45:32;;;;;;;14.83;8.07;;;;;;;-1.54;100.00;102673.06;5029123;28;20037;-73
2024/02/16 09:48:01;;;;;;;14.47;8.33;;;;;;;-1.64;100.00;102677.66;5032274;28;20055;-71
2024/02/16 09:50:28;;;;;;;19.92;9.90;;;;;;;-2.29;100.00;102563.47;5030441;28;20268;-70
2024/02/16 09:52:54;;;;;;;12.07;8.47;;;;;;;-1.50;100.00;102708.66;5032278;28;20029;-74
2024/02/16 09:55:20;;;;;;;11.53;6.93;;;;;;;-1.52;100.00;102705.22;5030818;28;20272;-72
2024/02/16 09:57:46;;;;;;;15.93;7.53;;;;;;;-1.66;100.00;102675.09;5025141;28;20280;-71
2024/02/16 10:00:13;;;;;;;16.30;8.83;;;;;;;-1.75;100.00;102656.16;5028142;28;20051;-71
2024/02/16 10:02:48;;;;;;;12.20;7.57;;;;;;;-1.60;100.00;102668.84;5030626;28;20640;-74
2024/02/16 10:05:20;;;;;;;12.50;7.65;;;;;;;-1.48;100.00;102685.97;5030074;28;20275;-72
2024/02/16 10:07:46;;;;;;;12.25;7.85;;;;;;;-1.47;100.00;102690.28;5032979;28;20099;-74
2024/02/16 10:10:25;;;;;;;12.33;7.50;;;;;;;-1.46;100.00;102692.88;5030122;28;20037;-72
2024/02/16 10:13:20;;;;;;;9.53;6.83;;;;;;;-1.45;100.00;102709.41;5032914;28;20136;-71
2024/02/16 10:15:46;;;;;;;13.17;7.23;;;;;;;-1.52;100.00;102692.16;5028559;28;20292;-73
2024/02/16 10:18:11;;;;;;;11.20;7.33;;;;;;;-1.44;100.00;102698.94;5034857;28;20275;-72
2024/02/16 10:20:38;;;;;;;10.17;7.40;;;;;;;-1.63;100.00;102659.34;5034699;28;20089;-72
2024/02/16 10:23:11;;;;;;;10.57;7.57;;;;;;;-1.35;100.00;102690.84;5034667;28;20033;-73
2024/02/16 10:25:40;;;;;;;18.40;9.67;;;;;;;-1.36;100.00;102683.06;5033384;28;20295;-73
2024/02/16 10:28:10;;;;;;;;;;;;;;;-1.28;100.00;102691.53;5035308;28;20335;-75
2024/02/16 10:30:40;;;;;;;12.40;8.43;;;;;;;-1.38;100.00;102675.25;5015512;28;20300;-72
2024/02/16 10:33:09;;;;;;;12.80;6.73;;;;;;;-1.39;100.00;102657.84;5015319;28;20268;-74
2024/02/16 10:35:36;;;;;;;11.90;8.00;;;;;;;-1.23;99.93;102673.97;5014664;28;20293;-74
2024/02/16 10:38:06;;;;;;;12.17;8.17;;;;;;;-1.53;99.82;102619.91;5014540;28;20342;-72
2024/02/16 10:40:40;;;;;;;11.70;8.10;;;;;;;-1.38;99.14;102628.22;5012846;28;20784;-73
2024/02/16 10:43:06;;;;;;;15.50;9.90;;;;;;;-1.21;99.53;102651.28;5014028;28;20834;-73
2024/02/16 10:45:36;;;;;;;12.57;6.93;;;;;;;-1.12;98.58;102658.03;5013846;28;20895;-75
2024/02/16 10:48:04;;;;;;;10.37;7.37;;;;;;;-1.12;98.07;102651.03;5013906;28;20300;-73
2024/02/16 10:50:30;;;;;;;10.80;7.70;;;;;;;-1.08;97.89;102628.28;5014356;28;20272;-73
2024/02/16 10:52:58;;;;;;;15.30;6.80;;;;;;;-1.00;95.98;102629.78;5016071;28;20728;-75
2024/02/16 10:55:24;;;;;;;9.17;7.00;;;;;;;-0.89;96.98;102639.06;5014691;28;20669;-71
2024/02/16 10:57:52;;;;;;;12.07;7.33;;;;;;;-0.83;95.22;102641.53;5046329;28;20284;-74
2024/02/16 11:00:19;;;;;;;10.02;6.68;;;;;;;-1.07;96.34;102581.16;5014551;28;20277;-73